createdAt,value
2019-04-07T00:00:34.080Z,31.30
2019-04-07T00:03:05.206Z,31.73
2019-04-07T00:05:36.865Z,28.13
2019-04-07T00:08:08.465Z,30.30
2019-04-07T00:10:39.007Z,29.10
2019-04-07T00:13:10.051Z,30.83
2019-04-07T00:15:41.547Z,28.23
2019-04-07T00:18:12.173Z,30.03
2019-04-07T00:20:42.798Z,29.63
2019-04-07T00:23:13.377Z,32.77
2019-04-07T00:25:44.320Z,29.73
2019-04-07T00:28:14.973Z,30.57
2019-04-07T00:30:46.710Z,32.80
2019-04-07T00:33:17.269Z,30.87
2019-04-07T00:35:47.930Z,29.70
2019-04-07T00:38:19.455Z,30.67
2019-04-07T00:40:50.291Z,30.67
2019-04-07T00:43:21.057Z,29.37
2019-04-07T00:45:51.605Z,29.43
2019-04-07T00:48:22.193Z,29.97
2019-04-07T00:50:53.796Z,29.10
2019-04-07T00:53:24.323Z,29.07
2019-04-07T00:55:55.043Z,27.37
2019-04-07T00:58:25.552Z,27.73
2019-04-07T01:00:56.364Z,27.57
2019-04-07T01:03:26.921Z,29.87
2019-04-07T01:05:58.733Z,30.70
2019-04-07T01:08:29.619Z,31.10
2019-04-07T01:11:01.480Z,31.43
2019-04-07T01:13:33.622Z,32.53
2019-04-07T01:16:06.638Z,32.17
2019-04-07T01:18:37.990Z,31.57
2019-04-07T01:21:08.612Z,29.87
2019-04-07T01:23:39.613Z,30.13
2019-04-07T01:26:10.535Z,30.50
2019-04-07T01:28:41.754Z,31.47
2019-04-07T01:31:12.365Z,31.67
2019-04-07T01:33:43.127Z,31.63
2019-04-07T01:36:13.645Z,33.13
2019-04-07T01:38:44.478Z,32.83
2019-04-07T01:41:40.732Z,33.70
2019-04-07T01:44:16.349Z,33.83
2019-04-07T01:47:17.767Z,37.10
2019-04-07T01:50:02.274Z,33.63
2019-04-07T01:52:44.953Z,36.93
2019-04-07T01:55:23.584Z,37.30
2019-04-07T01:58:12.073Z,39.53
2019-04-07T02:00:52.035Z,40.80
2019-04-07T02:04:01.742Z,40.60
2019-04-07T02:06:51.795Z,40.00
2019-04-07T02:09:37.027Z,38.00
2019-04-07T02:12:18.990Z,39.70
2019-04-07T02:15:15.030Z,40.13
2019-04-07T02:18:03.579Z,40.23
2019-04-07T02:21:04.336Z,42.23
2019-04-07T02:23:57.510Z,41.70
2019-04-07T02:26:48.597Z,43.90
2019-04-07T02:29:34.594Z,47.27
2019-04-07T02:32:13.124Z,47.63
2019-04-07T02:34:57.932Z,51.47
2019-04-07T02:37:38.921Z,52.60
2019-04-07T02:40:15.433Z,52.73
2019-04-07T02:42:55.884Z,50.33
2019-04-07T02:45:45.122Z,50.27
2019-04-07T02:48:44.644Z,50.83
2019-04-07T02:51:33.745Z,54.17
2019-04-07T02:54:29.323Z,55.57
2019-04-07T02:57:05.469Z,57.07
2019-04-07T03:00:04.565Z,61.80
2019-04-07T03:02:45.550Z,68.20
2019-04-07T03:05:38.847Z,71.47
2019-04-07T03:08:44.071Z,84.70
2019-04-07T03:11:27.715Z,90.60
2019-04-07T03:14:17.811Z,83.27
2019-04-07T03:17:06.692Z,92.97
2019-04-07T03:19:52.155Z,90.20
2019-04-07T03:22:41.905Z,87.83
2019-04-07T03:25:49.616Z,84.60
2019-04-07T03:28:34.616Z,84.97
2019-04-07T03:31:27.865Z,72.20
2019-04-07T03:34:23.326Z,70.93
2019-04-07T03:37:30.285Z,67.23
2019-04-07T03:39:54.199Z,66.83
2019-04-07T03:42:46.890Z,67.30
2019-04-07T03:45:32.653Z,67.97
2019-04-07T03:48:15.735Z,71.30
2019-04-07T03:51:04.122Z,72.10
2019-04-07T03:53:52.819Z,75.43
2019-04-07T03:56:45.502Z,74.30
2019-04-07T03:59:47.338Z,73.97
2019-04-07T04:02:35.110Z,72.03
2019-04-07T04:05:19.726Z,71.80
2019-04-07T04:08:09.516Z,74.87
2019-04-07T04:10:55.633Z,73.43
2019-04-07T04:13:36.002Z,75.20
2019-04-07T04:16:18.593Z,77.53
2019-04-07T04:18:50.533Z,76.17
2019-04-07T04:21:22.038Z,77.57
2019-04-07T04:23:53.044Z,78.57
2019-04-07T04:26:23.861Z,78.57
2019-04-07T04:28:55.204Z,81.33
2019-04-07T04:31:25.982Z,84.30
2019-04-07T04:33:56.527Z,85.67
2019-04-07T04:36:27.341Z,88.83
2019-04-07T04:38:58.001Z,84.77
2019-04-07T04:41:29.358Z,77.20
2019-04-07T04:44:00.495Z,74.30
2019-04-07T04:46:31.175Z,68.33
2019-04-07T04:49:04.235Z,62.27
2019-04-07T04:51:39.272Z,56.70
2019-04-07T04:54:08.329Z,55.60
2019-04-07T04:56:39.448Z,53.63
2019-04-07T04:59:10.141Z,61.23
2019-04-07T05:01:40.719Z,62.00
2019-04-07T05:04:11.521Z,64.00
2019-04-07T05:06:42.333Z,63.63
2019-04-07T05:09:13.331Z,67.10
2019-04-07T05:11:46.132Z,57.03
2019-04-07T05:14:18.958Z,61.90
2019-04-07T05:16:50.354Z,60.30
2019-04-07T05:19:21.058Z,65.87
2019-04-07T05:21:51.636Z,65.80
2019-04-07T05:24:23.156Z,64.20
2019-04-07T05:26:54.234Z,62.13
2019-04-07T05:29:24.810Z,60.67
2019-04-07T05:31:55.725Z,60.07
2019-04-07T05:34:27.916Z,57.80
2019-04-07T05:36:58.759Z,56.90
2019-04-07T05:39:30.913Z,54.40
2019-04-07T05:42:03.495Z,55.77
2019-04-07T05:44:34.448Z,57.83
2019-04-07T05:47:05.058Z,57.20
2019-04-07T05:49:36.646Z,54.23
2019-04-07T05:52:07.240Z,54.63
2019-04-07T05:54:37.909Z,58.70
2019-04-07T05:57:09.867Z,50.47
2019-04-07T05:59:42.300Z,45.97
2019-04-07T06:02:13.206Z,48.07
2019-04-07T06:04:44.387Z,43.40
2019-04-07T06:07:17.857Z,40.90
2019-04-07T06:09:51.194Z,41.53
2019-04-07T06:12:22.642Z,41.23
2019-04-07T06:14:53.449Z,40.00
2019-04-07T06:17:26.318Z,39.40
2019-04-07T06:19:58.913Z,39.43
2019-04-07T06:22:33.841Z,38.27
2019-04-07T06:25:05.709Z,41.77
2019-04-07T06:27:37.176Z,40.93
2019-04-07T06:30:09.790Z,42.03
2019-04-07T06:32:40.810Z,41.37
2019-04-07T06:35:13.966Z,41.60
2019-04-07T06:37:45.452Z,41.73
2019-04-07T06:40:20.333Z,41.57
2019-04-07T06:42:48.789Z,38.50
2019-04-07T06:45:23.487Z,38.23
2019-04-07T06:47:57.114Z,39.23
2019-04-07T06:50:50.786Z,39.07
2019-04-07T06:53:38.038Z,39.70
2019-04-07T06:56:32.191Z,39.77
2019-04-07T06:59:23.098Z,39.93
2019-04-07T07:02:13.261Z,44.13
2019-04-07T07:05:00.955Z,41.73
2019-04-07T07:07:48.159Z,41.43
2019-04-07T07:10:39.058Z,45.00
2019-04-07T07:13:28.745Z,45.40
2019-04-07T07:16:15.606Z,44.30
2019-04-07T07:18:54.796Z,44.77
2019-04-07T07:21:36.484Z,44.27
2019-04-07T07:24:05.981Z,45.53
2019-04-07T07:26:36.690Z,46.30
2019-04-07T07:29:07.218Z,47.07
2019-04-07T07:31:37.970Z,44.90
2019-04-07T07:34:10.166Z,46.20
2019-04-07T07:36:40.839Z,47.17
2019-04-07T07:39:12.913Z,47.67
2019-04-07T07:41:43.554Z,47.77
2019-04-07T07:44:14.416Z,46.90
2019-04-07T07:46:45.150Z,45.27
2019-04-07T07:49:15.805Z,48.93
2019-04-07T07:51:48.547Z,49.53
2019-04-07T07:54:18.743Z,50.77
2019-04-07T07:56:51.435Z,52.13
2019-04-07T07:59:22.540Z,49.60
2019-04-07T08:01:53.460Z,52.20
2019-04-07T08:04:26.478Z,51.20
2019-04-07T08:06:57.939Z,54.87
2019-04-07T08:09:28.463Z,51.57
2019-04-07T08:11:58.917Z,78.73
2019-04-07T08:14:29.358Z,59.73
2019-04-07T08:17:02.715Z,57.63
2019-04-07T08:19:33.106Z,53.97
2019-04-07T08:22:03.874Z,85.77
2019-04-07T08:24:35.128Z,96.80
2019-04-07T08:27:06.371Z,108.10
2019-04-07T08:29:38.771Z,112.30
2019-04-07T08:32:09.489Z,110.27
2019-04-07T08:34:42.591Z,110.13
2019-04-07T08:37:15.171Z,103.30
2019-04-07T08:39:46.533Z,93.10
2019-04-07T08:42:18.715Z,93.03
2019-04-07T08:44:50.859Z,92.00
2019-04-07T08:47:22.607Z,82.90
2019-04-07T08:49:56.909Z,64.23
2019-04-07T08:52:26.039Z,64.27
2019-04-07T08:54:56.691Z,52.97
2019-04-07T08:57:30.119Z,47.47
2019-04-07T08:59:59.651Z,48.70
2019-04-07T09:02:32.155Z,47.93
2019-04-07T09:05:03.006Z,47.13
2019-04-07T09:07:34.943Z,48.27
2019-04-07T09:10:06.178Z,40.30
2019-04-07T09:12:36.864Z,43.53
2019-04-07T09:15:11.528Z,41.17
2019-04-07T09:17:47.188Z,35.53
2019-04-07T09:20:31.744Z,39.27
2019-04-07T09:23:34.359Z,36.00
2019-04-07T09:26:15.129Z,31.43
2019-04-07T09:28:57.463Z,35.30
2019-04-07T09:31:50.973Z,35.40
2019-04-07T09:34:33.497Z,36.27
2019-04-07T09:37:28.857Z,35.43
2019-04-07T09:40:34.041Z,35.33
2019-04-07T09:43:30.286Z,36.77
2019-04-07T09:46:11.909Z,36.73
2019-04-07T09:49:16.913Z,38.47
2019-04-07T09:52:02.524Z,36.97
2019-04-07T09:54:41.299Z,36.80
2019-04-07T09:57:25.993Z,34.97
2019-04-07T10:00:23.834Z,35.17
2019-04-07T10:03:04.955Z,33.83
2019-04-07T10:05:58.889Z,31.73
2019-04-07T10:08:54.535Z,32.43
2019-04-07T10:11:41.789Z,30.90
2019-04-07T10:14:30.727Z,28.23
2019-04-07T10:17:25.489Z,29.30
2019-04-07T10:20:15.850Z,28.43
2019-04-07T10:23:05.512Z,24.30
2019-04-07T10:25:43.467Z,25.90
2019-04-07T10:28:32.333Z,26.10
2019-04-07T10:31:20.980Z,28.03
2019-04-07T10:34:01.854Z,26.20
2019-04-07T10:36:54.603Z,28.50
2019-04-07T10:39:43.539Z,29.30
2019-04-07T10:42:27.186Z,28.60
2019-04-07T10:45:26.310Z,28.17
2019-04-07T10:48:24.479Z,30.27
2019-04-07T10:51:02.685Z,28.30
2019-04-07T10:53:56.136Z,29.67
2019-04-07T10:56:46.100Z,29.50
2019-04-07T10:59:36.906Z,28.67
2019-04-07T11:02:26.016Z,28.73
2019-04-07T11:05:15.641Z,28.47
2019-04-07T11:08:18.246Z,28.53
2019-04-07T11:11:13.556Z,28.27
2019-04-07T11:14:02.059Z,27.07
2019-04-07T11:16:55.194Z,26.77
2019-04-07T11:19:44.856Z,26.63
2019-04-07T11:22:36.052Z,25.33
2019-04-07T11:25:26.214Z,26.30
2019-04-07T11:28:31.800Z,26.57
2019-04-07T11:31:19.581Z,27.57
2019-04-07T11:34:11.073Z,27.17
2019-04-07T11:36:50.293Z,28.27
2019-04-07T11:39:38.764Z,27.90
2019-04-07T11:42:19.887Z,27.03
2019-04-07T11:45:00.112Z,25.87
2019-04-07T11:47:49.298Z,26.90
2019-04-07T11:50:34.840Z,28.13
2019-04-07T11:53:24.280Z,28.80
2019-04-07T11:56:13.202Z,26.83
2019-04-07T11:58:51.399Z,28.57
2019-04-07T12:01:50.953Z,27.80
2019-04-07T12:04:55.570Z,27.27
2019-04-07T12:07:42.747Z,26.60
2019-04-07T12:10:40.263Z,26.67
2019-04-07T12:13:35.701Z,27.80
2019-04-07T12:16:28.654Z,27.27
2019-04-07T12:19:32.121Z,27.60
2019-04-07T12:22:42.464Z,26.40
2019-04-07T12:25:47.174Z,25.00
2019-04-07T12:28:36.645Z,22.60
2019-04-07T12:31:16.342Z,23.00
2019-04-07T12:34:02.891Z,22.83
2019-04-07T12:36:53.004Z,25.40
2019-04-07T12:39:47.273Z,24.80
2019-04-07T12:42:42.936Z,25.93
2019-04-07T12:45:48.158Z,24.70
2019-04-07T12:48:50.073Z,26.93
2019-04-07T12:51:46.088Z,26.97
2019-04-07T12:54:47.807Z,22.90
2019-04-07T12:57:40.361Z,24.47
2019-04-07T13:00:27.633Z,22.93
2019-04-07T13:03:22.961Z,24.10
2019-04-07T13:06:10.961Z,24.87
2019-04-07T13:08:51.922Z,23.50
2019-04-07T13:11:37.285Z,23.53
2019-04-07T13:14:24.585Z,24.17
2019-04-07T13:17:13.785Z,24.00
2019-04-07T13:20:11.856Z,23.90
2019-04-07T13:22:55.192Z,24.27
2019-04-07T13:25:55.674Z,22.60
2019-04-07T13:28:45.148Z,23.13
2019-04-07T13:31:24.538Z,21.70
2019-04-07T13:34:07.551Z,20.90
2019-04-07T13:36:55.518Z,21.33
2019-04-07T13:39:45.214Z,21.40
2019-04-07T13:42:26.701Z,22.13
2019-04-07T13:45:16.460Z,21.97
2019-04-07T13:48:05.735Z,21.80
2019-04-07T13:51:00.963Z,23.93
2019-04-07T13:54:05.795Z,22.90
2019-04-07T13:57:04.493Z,23.00
2019-04-07T13:59:56.526Z,22.40
2019-04-07T14:02:34.043Z,23.23
2019-04-07T14:05:25.886Z,21.47
2019-04-07T14:08:22.333Z,23.70
2019-04-07T14:11:24.932Z,22.40
2019-04-07T14:14:07.946Z,22.93
2019-04-07T14:16:57.490Z,21.33
2019-04-07T14:19:46.606Z,22.83
2019-04-07T14:22:36.377Z,22.83
2019-04-07T14:25:29.843Z,21.43
2019-04-07T14:28:19.048Z,23.93
2019-04-07T14:31:17.937Z,25.67
2019-04-07T14:34:11.828Z,23.07
2019-04-07T14:37:16.364Z,22.67
2019-04-07T14:40:05.174Z,23.40
2019-04-07T14:42:55.730Z,21.47
2019-04-07T14:45:50.404Z,22.43
2019-04-07T14:48:41.044Z,21.47
2019-04-07T14:51:23.080Z,21.83
2019-04-07T14:54:16.361Z,20.67
2019-04-07T14:57:12.514Z,22.47
2019-04-07T15:00:06.067Z,22.90
2019-04-07T15:02:37.208Z,22.90
2019-04-07T15:05:15.940Z,24.20
2019-04-07T15:08:05.360Z,22.63
2019-04-07T15:10:48.400Z,23.27
2019-04-07T15:13:26.194Z,22.60
2019-04-07T15:15:53.661Z,21.00
2019-04-07T15:18:24.170Z,21.33
2019-04-07T15:20:54.704Z,20.40
2019-04-07T15:23:25.196Z,21.23
2019-04-07T15:25:55.758Z,21.87
2019-04-07T15:28:29.722Z,22.33
2019-04-07T15:30:58.932Z,23.80
2019-04-07T15:33:33.062Z,23.37
2019-04-07T15:36:02.785Z,23.13
2019-04-07T15:38:33.353Z,21.67
2019-04-07T15:41:07.600Z,18.77
2019-04-07T15:43:36.195Z,17.37
2019-04-07T15:46:07.455Z,18.90
2019-04-07T15:48:39.047Z,18.73
2019-04-07T15:51:09.605Z,21.27
2019-04-07T15:53:40.376Z,25.10
2019-04-07T15:56:15.065Z,19.20
2019-04-07T15:58:43.328Z,17.30
2019-04-07T16:01:14.020Z,18.33
2019-04-07T16:03:48.675Z,17.00
2019-04-07T16:06:18.179Z,17.70
2019-04-07T16:08:49.681Z,17.60
2019-04-07T16:11:24.182Z,21.00
2019-04-07T16:13:52.502Z,24.40
2019-04-07T16:16:26.854Z,24.60
2019-04-07T16:18:55.389Z,24.73
2019-04-07T16:21:27.840Z,24.40
2019-04-07T16:23:59.155Z,25.90
2019-04-07T16:26:32.480Z,25.67
2019-04-07T16:29:03.329Z,25.60
2019-04-07T16:31:34.418Z,25.43
2019-04-07T16:34:08.629Z,26.80
2019-04-07T16:36:38.484Z,25.97
2019-04-07T16:39:09.803Z,27.77
2019-04-07T16:41:44.199Z,27.37
2019-04-07T16:44:12.764Z,28.03
2019-04-07T16:46:44.631Z,28.00
2019-04-07T16:49:17.380Z,28.30
2019-04-07T16:51:49.394Z,26.80
2019-04-07T16:54:20.148Z,27.03
2019-04-07T16:56:54.886Z,27.90
2019-04-07T16:59:22.900Z,28.47
2019-04-07T17:01:53.638Z,28.60
2019-04-07T17:04:28.138Z,29.00
2019-04-07T17:07:05.012Z,28.83
2019-04-07T17:09:35.417Z,30.10
2019-04-07T17:12:09.368Z,29.07
2019-04-07T17:14:39.531Z,31.00
2019-04-07T17:17:10.129Z,34.27
2019-04-07T17:19:41.552Z,33.17
2019-04-07T17:22:14.916Z,32.23
2019-04-07T17:24:45.286Z,33.70
2019-04-07T17:27:17.227Z,37.30
2019-04-07T17:29:53.124Z,37.53
2019-04-07T17:32:22.027Z,39.23
2019-04-07T17:34:53.017Z,41.23
2019-04-07T17:37:28.032Z,42.37
2019-04-07T17:40:28.869Z,42.57
2019-04-07T17:43:25.677Z,41.87
2019-04-07T17:45:58.050Z,40.53
2019-04-07T17:48:57.649Z,41.40
2019-04-07T17:51:49.973Z,41.83
2019-04-07T17:54:34.433Z,43.73
2019-04-07T17:57:18.456Z,47.80
2019-04-07T17:59:58.264Z,46.10
2019-04-07T18:02:47.493Z,45.67
2019-04-07T18:05:34.512Z,49.40
2019-04-07T18:08:16.561Z,46.17
2019-04-07T18:11:10.806Z,47.50
2019-04-07T18:13:58.261Z,47.63
2019-04-07T18:17:04.461Z,46.63
2019-04-07T18:19:59.498Z,46.70
2019-04-07T18:22:51.680Z,47.50
2019-04-07T18:25:47.753Z,46.40
2019-04-07T18:28:41.890Z,47.13
2019-04-07T18:31:28.984Z,51.37
2019-04-07T18:34:25.093Z,57.63
2019-04-07T18:37:13.037Z,61.97
2019-04-07T18:40:14.710Z,64.27
2019-04-07T18:42:55.609Z,67.23
2019-04-07T18:45:54.805Z,71.80
2019-04-07T18:48:51.396Z,73.03
2019-04-07T18:51:58.068Z,74.23
2019-04-07T18:55:08.979Z,69.07
2019-04-07T18:57:54.228Z,58.67
2019-04-07T19:00:42.383Z,57.87
2019-04-07T19:03:51.922Z,56.77
2019-04-07T19:06:49.676Z,55.50
2019-04-07T19:09:42.600Z,61.33
2019-04-07T19:12:28.910Z,59.87
2019-04-07T19:15:14.476Z,62.13
2019-04-07T19:18:06.908Z,63.00
2019-04-07T19:20:55.678Z,68.57
2019-04-07T19:23:43.908Z,71.67
2019-04-07T19:26:53.062Z,74.17
2019-04-07T19:29:41.862Z,81.13
2019-04-07T19:32:29.193Z,88.47
2019-04-07T19:35:28.243Z,88.23
2019-04-07T19:38:24.040Z,83.17
2019-04-07T19:41:19.950Z,81.77
2019-04-07T19:44:01.942Z,80.17
2019-04-07T19:46:46.010Z,78.80
2019-04-07T19:49:45.333Z,77.73
2019-04-07T19:52:36.254Z,72.97
2019-04-07T19:55:34.567Z,73.97
2019-04-07T19:58:37.311Z,76.73
2019-04-07T20:01:29.014Z,69.43
2019-04-07T20:04:30.653Z,74.93
2019-04-07T20:07:15.903Z,78.13
2019-04-07T20:09:58.802Z,78.97
2019-04-07T20:12:48.439Z,79.60
2019-04-07T20:15:40.197Z,75.07
2019-04-07T20:18:31.612Z,78.67
2019-04-07T20:21:18.541Z,86.37
2019-04-07T20:24:08.861Z,84.80
2019-04-07T20:26:55.855Z,84.97
2019-04-07T20:29:58.474Z,89.63
2019-04-07T20:32:51.292Z,95.43
2019-04-07T20:35:34.950Z,115.90
2019-04-07T20:38:25.595Z,108.83
2019-04-07T20:41:21.820Z,98.27
2019-04-07T20:43:59.045Z,87.80
2019-04-07T20:46:47.269Z,87.50
2019-04-07T20:49:41.220Z,82.37
2019-04-07T20:52:50.189Z,76.53
2019-04-07T20:55:42.815Z,77.47
2019-04-07T20:58:25.758Z,70.83
2019-04-07T21:01:18.797Z,57.47
2019-04-07T21:04:17.913Z,65.13
2019-04-07T21:07:25.424Z,70.13
2019-04-07T21:10:12.471Z,65.90
2019-04-07T21:13:04.034Z,61.13
2019-04-07T21:15:59.509Z,58.90
2019-04-07T21:18:45.175Z,59.10
2019-04-07T21:21:23.480Z,60.23
2019-04-07T21:24:03.723Z,58.17
2019-04-07T21:26:45.909Z,56.77
2019-04-07T21:29:38.603Z,57.50
2019-04-07T21:32:18.833Z,58.03
2019-04-07T21:35:01.409Z,58.33
2019-04-07T21:38:06.063Z,58.83
2019-04-07T21:41:01.959Z,58.90
2019-04-07T21:43:56.827Z,63.87
2019-04-07T21:46:57.942Z,66.03
2019-04-07T21:49:37.172Z,63.47
2019-04-07T21:52:26.651Z,63.07
2019-04-07T21:55:19.076Z,63.40
2019-04-07T21:58:03.414Z,61.30
2019-04-07T22:00:53.061Z,61.73
2019-04-07T22:03:39.502Z,58.60
2019-04-07T22:06:31.111Z,58.77
2019-04-07T22:09:14.763Z,58.17
2019-04-07T22:11:44.557Z,59.40
2019-04-07T22:14:15.249Z,59.53
2019-04-07T22:16:47.094Z,56.97
2019-04-07T22:19:17.711Z,57.33
2019-04-07T22:21:48.247Z,58.17
2019-04-07T22:24:18.890Z,57.27
2019-04-07T22:26:50.260Z,51.67
2019-04-07T22:29:21.067Z,53.47
2019-04-07T22:31:54.014Z,52.57
2019-04-07T22:34:24.889Z,53.07
2019-04-07T22:36:56.042Z,52.50
2019-04-07T22:39:28.833Z,53.50
2019-04-07T22:41:58.687Z,52.83
2019-04-07T22:44:31.429Z,56.00
2019-04-07T22:47:02.793Z,55.07
2019-04-07T22:49:33.606Z,57.87
2019-04-07T22:52:04.103Z,59.13
2019-04-07T22:54:36.858Z,63.37
2019-04-07T22:57:12.709Z,64.20
2019-04-07T22:59:40.675Z,64.80
2019-04-07T23:02:12.162Z,66.70
2019-04-07T23:04:44.763Z,70.27
2019-04-07T23:07:15.922Z,67.23
2019-04-07T23:09:49.635Z,66.87
2019-04-07T23:12:20.986Z,67.47
2019-04-07T23:14:51.548Z,68.40
2019-04-07T23:17:22.054Z,69.70
2019-04-07T23:19:52.573Z,69.13
2019-04-07T23:22:23.160Z,69.33
2019-04-07T23:24:53.666Z,68.13
2019-04-07T23:27:24.270Z,72.00
2019-04-07T23:29:54.945Z,70.93
2019-04-07T23:32:25.666Z,70.67
2019-04-07T23:34:56.161Z,68.53
2019-04-07T23:37:26.760Z,69.00
2019-04-07T23:39:58.032Z,69.13
2019-04-07T23:42:28.807Z,68.90
2019-04-07T23:44:59.306Z,66.93
2019-04-07T23:47:29.799Z,68.97
2019-04-07T23:50:00.750Z,69.40
2019-04-07T23:52:31.609Z,67.77
2019-04-07T23:55:02.432Z,67.47
2019-04-07T23:57:33.313Z,69.30
